sensor_id;sensor_type;location;lat;lon;timestamp;P1;durP1;ratioP1;P2;durP2;ratioP2
15096;SDS011;7649;52.084;7.478;2024-02-28T00:00:05;30.90;;;16.00;;
15096;SDS011;7649;52.084;7.478;2024-02-28T00:02:36;39.03;;;16.13;;
15096;SDS011;7649;52.084;7.478;2024-02-28T00:05:05;45.17;;;17.17;;
15096;SDS011;7649;52.084;7.478;2024-02-28T00:07:35;50.50;;;16.73;;
15096;SDS011;7649;52.084;7.478;2024-02-28T00:10:03;43.10;;;16.83;;
15096;SDS011;7649;52.084;7.478;2024-02-28T00:12:32;80.77;;;18.40;;
15096;SDS011;7649;52.084;7.478;2024-02-28T00:15:00;98.77;;;18.27;;
15096;SDS011;7649;52.084;7.478;2024-02-28T00:17:29;95.60;;;18.70;;
15096;SDS011;7649;52.084;7.478;2024-02-28T00:19:58;99.90;;;19.23;;
15096;SDS011;7649;52.084;7.478;2024-02-28T00:22:26;31.47;;;14.23;;
15096;SDS011;7649;52.084;7.478;2024-02-28T00:24:56;43.30;;;16.27;;
15096;SDS011;7649;52.084;7.478;2024-02-28T00:27:24;85.37;;;17.63;;
15096;SDS011;7649;52.084;7.478;2024-02-28T00:29:52;20.13;;;14.67;;
15096;SDS011;7649;52.084;7.478;2024-02-28T00:32:21;89.23;;;18.80;;
15096;SDS011;7649;52.084;7.478;2024-02-28T00:34:50;106.47;;;18.60;;
15096;SDS011;7649;52.084;7.478;2024-02-28T00:37:18;97.90;;;17.53;;
15096;SDS011;7649;52.084;7.478;2024-02-28T00:39:49;23.80;;;13.03;;
15096;SDS011;7649;52.084;7.478;2024-02-28T00:42:19;88.33;;;17.00;;
15096;SDS011;7649;52.084;7.478;2024-02-28T00:44:48;95.40;;;16.40;;
15096;SDS011;7649;52.084;7.478;2024-02-28T00:47:16;80.73;;;15.50;;
15096;SDS011;7649;52.084;7.478;2024-02-28T00:49:44;88.27;;;15.90;;
15096;SDS011;7649;52.084;7.478;2024-02-28T00:52:13;56.53;;;14.77;;
15096;SDS011;7649;52.084;7.478;2024-02-28T00:54:41;79.13;;;15.57;;
15096;SDS011;7649;52.084;7.478;2024-02-28T00:57:09;71.73;;;14.40;;
15096;SDS011;7649;52.084;7.478;2024-02-28T00:59:39;74.07;;;15.13;;
15096;SDS011;7649;52.084;7.478;2024-02-28T01:02:08;57.90;;;14.50;;
15096;SDS011;7649;52.084;7.478;2024-02-28T01:04:37;94.20;;;16.67;;
15096;SDS011;7649;52.084;7.478;2024-02-28T01:07:05;89.33;;;15.67;;
15096;SDS011;7649;52.084;7.478;2024-02-28T01:09:34;40.07;;;13.53;;
15096;SDS011;7649;52.084;7.478;2024-02-28T01:12:02;70.53;;;14.03;;
15096;SDS011;7649;52.084;7.478;2024-02-28T01:14:31;43.17;;;13.03;;
15096;SDS011;7649;52.084;7.478;2024-02-28T01:17:00;45.13;;;14.80;;
15096;SDS011;7649;52.084;7.478;2024-02-28T01:19:29;54.90;;;14.17;;
15096;SDS011;7649;52.084;7.478;2024-02-28T01:21:58;30.63;;;13.13;;
15096;SDS011;7649;52.084;7.478;2024-02-28T01:24:26;46.57;;;13.43;;
15096;SDS011;7649;52.084;7.478;2024-02-28T01:26:55;50.03;;;13.33;;
15096;SDS011;7649;52.084;7.478;2024-02-28T01:29:23;21.63;;;12.73;;
15096;SDS011;7649;52.084;7.478;2024-02-28T01:31:51;32.37;;;12.33;;
15096;SDS011;7649;52.084;7.478;2024-02-28T01:34:21;29.47;;;12.47;;
15096;SDS011;7649;52.084;7.478;2024-02-28T01:36:50;109.23;;;15.70;;
15096;SDS011;7649;52.084;7.478;2024-02-28T01:39:18;83.43;;;15.43;;
15096;SDS011;7649;52.084;7.478;2024-02-28T01:41:50;53.13;;;13.60;;
15096;SDS011;7649;52.084;7.478;2024-02-28T01:44:19;77.30;;;15.07;;
15096;SDS011;7649;52.084;7.478;2024-02-28T01:46:47;60.03;;;15.10;;
15096;SDS011;7649;52.084;7.478;2024-02-28T01:49:16;23.00;;;12.20;;
15096;SDS011;7649;52.084;7.478;2024-02-28T01:51:46;55.47;;;14.60;;
15096;SDS011;7649;52.084;7.478;2024-02-28T01:54:15;48.30;;;14.33;;
15096;SDS011;7649;52.084;7.478;2024-02-28T01:56:44;36.73;;;13.57;;
15096;SDS011;7649;52.084;7.478;2024-02-28T01:59:13;40.80;;;13.87;;
15096;SDS011;7649;52.084;7.478;2024-02-28T02:01:41;37.77;;;13.70;;
15096;SDS011;7649;52.084;7.478;2024-02-28T02:04:11;39.10;;;13.00;;
15096;SDS011;7649;52.084;7.478;2024-02-28T02:06:41;35.10;;;12.53;;
15096;SDS011;7649;52.084;7.478;2024-02-28T02:09:11;32.63;;;12.20;;
15096;SDS011;7649;52.084;7.478;2024-02-28T02:11:39;32.07;;;12.63;;
15096;SDS011;7649;52.084;7.478;2024-02-28T02:14:08;28.33;;;12.57;;
15096;SDS011;7649;52.084;7.478;2024-02-28T02:16:36;44.87;;;12.87;;
15096;SDS011;7649;52.084;7.478;2024-02-28T02:19:04;57.03;;;13.10;;
15096;SDS011;7649;52.084;7.478;2024-02-28T02:21:34;69.57;;;12.67;;
15096;SDS011;7649;52.084;7.478;2024-02-28T02:24:04;49.77;;;12.03;;
15096;SDS011;7649;52.084;7.478;2024-02-28T02:26:33;68.73;;;13.53;;
15096;SDS011;7649;52.084;7.478;2024-02-28T02:29:01;47.00;;;13.43;;
15096;SDS011;7649;52.084;7.478;2024-02-28T02:31:29;27.83;;;11.93;;
15096;SDS011;7649;52.084;7.478;2024-02-28T02:33:57;46.27;;;12.13;;
15096;SDS011;7649;52.084;7.478;2024-02-28T02:36:26;42.43;;;12.13;;
15096;SDS011;7649;52.084;7.478;2024-02-28T02:38:54;36.17;;;11.00;;
15096;SDS011;7649;52.084;7.478;2024-02-28T02:41:25;37.30;;;12.50;;
15096;SDS011;7649;52.084;7.478;2024-02-28T02:43:54;47.30;;;12.57;;
15096;SDS011;7649;52.084;7.478;2024-02-28T02:46:23;33.00;;;10.97;;
15096;SDS011;7649;52.084;7.478;2024-02-28T02:48:51;31.00;;;11.10;;
15096;SDS011;7649;52.084;7.478;2024-02-28T02:51:20;53.27;;;11.80;;
15096;SDS011;7649;52.084;7.478;2024-02-28T02:53:48;35.20;;;11.27;;
15096;SDS011;7649;52.084;7.478;2024-02-28T02:56:17;51.80;;;11.77;;
15096;SDS011;7649;52.084;7.478;2024-02-28T02:58:46;44.40;;;12.57;;
15096;SDS011;7649;52.084;7.478;2024-02-28T03:01:15;39.00;;;11.60;;
15096;SDS011;7649;52.084;7.478;2024-02-28T03:03:43;38.80;;;12.93;;
15096;SDS011;7649;52.084;7.478;2024-02-28T03:06:11;55.80;;;13.10;;
15096;SDS011;7649;52.084;7.478;2024-02-28T03:08:40;37.30;;;11.93;;
15096;SDS011;7649;52.084;7.478;2024-02-28T03:11:08;68.93;;;15.13;;
15096;SDS011;7649;52.084;7.478;2024-02-28T03:13:37;41.10;;;14.27;;
15096;SDS011;7649;52.084;7.478;2024-02-28T03:16:07;18.13;;;12.73;;
15096;SDS011;7649;52.084;7.478;2024-02-28T03:18:36;67.03;;;15.13;;
15096;SDS011;7649;52.084;7.478;2024-02-28T03:21:05;51.87;;;14.37;;
15096;SDS011;7649;52.084;7.478;2024-02-28T03:23:33;38.53;;;14.67;;
15096;SDS011;7649;52.084;7.478;2024-02-28T03:26:02;40.80;;;14.80;;
15096;SDS011;7649;52.084;7.478;2024-02-28T03:28:31;21.80;;;14.13;;
15096;SDS011;7649;52.084;7.478;2024-02-28T03:30:59;39.60;;;17.87;;
15096;SDS011;7649;52.084;7.478;2024-02-28T03:33:29;52.77;;;18.13;;
15096;SDS011;7649;52.084;7.478;2024-02-28T03:35:59;48.53;;;17.10;;
15096;SDS011;7649;52.084;7.478;2024-02-28T03:38:27;55.67;;;18.60;;
15096;SDS011;7649;52.084;7.478;2024-02-28T03:40:55;50.07;;;16.87;;
15096;SDS011;7649;52.084;7.478;2024-02-28T03:43:24;51.10;;;17.13;;
15096;SDS011;7649;52.084;7.478;2024-02-28T03:45:52;47.67;;;17.10;;
15096;SDS011;7649;52.084;7.478;2024-02-28T03:48:21;46.77;;;17.93;;
15096;SDS011;7649;52.084;7.478;2024-02-28T03:50:50;31.30;;;16.20;;
15096;SDS011;7649;52.084;7.478;2024-02-28T03:53:19;27.03;;;16.03;;
15096;SDS011;7649;52.084;7.478;2024-02-28T03:55:46;34.87;;;15.60;;
15096;SDS011;7649;52.084;7.478;2024-02-28T03:58:14;80.87;;;18.20;;
15096;SDS011;7649;52.084;7.478;2024-02-28T04:00:43;74.83;;;17.30;;
15096;SDS011;7649;52.084;7.478;2024-02-28T04:03:13;70.13;;;18.43;;
15096;SDS011;7649;52.084;7.478;2024-02-28T04:05:41;30.30;;;17.03;;
15096;SDS011;7649;52.084;7.478;2024-02-28T04:08:11;97.37;;;19.20;;
15096;SDS011;7649;52.084;7.478;2024-02-28T04:10:39;91.17;;;19.17;;
15096;SDS011;7649;52.084;7.478;2024-02-28T04:13:07;45.00;;;17.20;;
15096;SDS011;7649;52.084;7.478;2024-02-28T04:15:35;68.27;;;18.67;;
15096;SDS011;7649;52.084;7.478;2024-02-28T04:18:04;66.77;;;18.53;;
15096;SDS011;7649;52.084;7.478;2024-02-28T04:20:33;107.93;;;20.37;;
15096;SDS011;7649;52.084;7.478;2024-02-28T04:23:01;157.10;;;21.73;;
15096;SDS011;7649;52.084;7.478;2024-02-28T04:25:31;151.37;;;21.80;;
15096;SDS011;7649;52.084;7.478;2024-02-28T04:28:00;85.67;;;19.90;;
15096;SDS011;7649;52.084;7.478;2024-02-28T04:30:28;51.23;;;19.33;;
15096;SDS011;7649;52.084;7.478;2024-02-28T04:32:57;99.40;;;21.23;;
15096;SDS011;7649;52.084;7.478;2024-02-28T04:35:25;75.67;;;20.63;;
15096;SDS011;7649;52.084;7.478;2024-02-28T04:37:53;109.57;;;20.77;;
15096;SDS011;7649;52.084;7.478;2024-02-28T04:40:22;103.93;;;20.87;;
15096;SDS011;7649;52.084;7.478;2024-02-28T04:42:52;72.77;;;20.20;;
15096;SDS011;7649;52.084;7.478;2024-02-28T04:45:20;43.13;;;19.53;;
15096;SDS011;7649;52.084;7.478;2024-02-28T04:47:49;70.87;;;19.80;;
15096;SDS011;7649;52.084;7.478;2024-02-28T04:50:18;44.47;;;20.20;;
15096;SDS011;7649;52.084;7.478;2024-02-28T04:52:46;42.67;;;21.17;;
15096;SDS011;7649;52.084;7.478;2024-02-28T04:55:15;49.77;;;21.97;;
15096;SDS011;7649;52.084;7.478;2024-02-28T04:57:43;61.50;;;21.53;;
15096;SDS011;7649;52.084;7.478;2024-02-28T05:00:14;63.27;;;23.67;;
15096;SDS011;7649;52.084;7.478;2024-02-28T05:02:42;81.13;;;24.13;;
15096;SDS011;7649;52.084;7.478;2024-02-28T05:05:11;124.77;;;26.27;;
15096;SDS011;7649;52.084;7.478;2024-02-28T05:07:39;67.73;;;23.27;;
15096;SDS011;7649;52.084;7.478;2024-02-28T05:10:08;147.73;;;25.63;;
15096;SDS011;7649;52.084;7.478;2024-02-28T05:12:36;92.83;;;23.77;;
15096;SDS011;7649;52.084;7.478;2024-02-28T05:15:05;106.57;;;24.27;;
15096;SDS011;7649;52.084;7.478;2024-02-28T05:17:35;65.33;;;22.77;;
15096;SDS011;7649;52.084;7.478;2024-02-28T05:20:04;86.17;;;23.17;;
15096;SDS011;7649;52.084;7.478;2024-02-28T05:22:33;97.37;;;23.70;;
15096;SDS011;7649;52.084;7.478;2024-02-28T05:25:01;122.23;;;25.20;;
15096;SDS011;7649;52.084;7.478;2024-02-28T05:27:30;66.20;;;22.20;;
15096;SDS011;7649;52.084;7.478;2024-02-28T05:29:58;55.17;;;21.70;;
15096;SDS011;7649;52.084;7.478;2024-02-28T05:32:27;86.40;;;25.67;;
15096;SDS011;7649;52.084;7.478;2024-02-28T05:34:57;78.83;;;24.77;;
15096;SDS011;7649;52.084;7.478;2024-02-28T05:37:26;99.27;;;26.77;;
15096;SDS011;7649;52.084;7.478;2024-02-28T05:39:54;209.97;;;30.80;;
15096;SDS011;7649;52.084;7.478;2024-02-28T05:42:23;56.53;;;26.63;;
15096;SDS011;7649;52.084;7.478;2024-02-28T05:44:51;64.40;;;25.00;;
15096;SDS011;7649;52.084;7.478;2024-02-28T05:47:20;111.50;;;27.00;;
15096;SDS011;7649;52.084;7.478;2024-02-28T05:49:51;83.97;;;25.67;;
15096;SDS011;7649;52.084;7.478;2024-02-28T05:52:23;122.63;;;27.37;;
15096;SDS011;7649;52.084;7.478;2024-02-28T05:54:52;137.47;;;27.10;;
15096;SDS011;7649;52.084;7.478;2024-02-28T05:57:21;112.63;;;27.83;;
15096;SDS011;7649;52.084;7.478;2024-02-28T05:59:50;152.50;;;29.07;;
15096;SDS011;7649;52.084;7.478;2024-02-28T06:02:19;118.37;;;28.20;;
15096;SDS011;7649;52.084;7.478;2024-02-28T06:04:48;49.60;;;24.47;;
15096;SDS011;7649;52.084;7.478;2024-02-28T06:07:16;97.93;;;27.40;;
15096;SDS011;7649;52.084;7.478;2024-02-28T06:09:46;98.77;;;27.10;;
15096;SDS011;7649;52.084;7.478;2024-02-28T06:12:14;75.53;;;25.00;;
15096;SDS011;7649;52.084;7.478;2024-02-28T06:14:43;72.03;;;25.57;;
15096;SDS011;7649;52.084;7.478;2024-02-28T06:17:12;150.67;;;29.53;;
15096;SDS011;7649;52.084;7.478;2024-02-28T06:19:41;69.43;;;25.87;;
15096;SDS011;7649;52.084;7.478;2024-02-28T06:22:09;60.67;;;24.10;;
15096;SDS011;7649;52.084;7.478;2024-02-28T06:24:37;109.73;;;27.87;;
15096;SDS011;7649;52.084;7.478;2024-02-28T06:27:07;86.67;;;26.73;;
15096;SDS011;7649;52.084;7.478;2024-02-28T06:29:38;87.03;;;26.23;;
15096;SDS011;7649;52.084;7.478;2024-02-28T06:32:07;53.53;;;24.97;;
15096;SDS011;7649;52.084;7.478;2024-02-28T06:34:35;47.20;;;24.40;;
15096;SDS011;7649;52.084;7.478;2024-02-28T06:37:04;56.10;;;25.13;;
15096;SDS011;7649;52.084;7.478;2024-02-28T06:39:32;94.03;;;27.80;;
15096;SDS011;7649;52.084;7.478;2024-02-28T06:42:00;91.73;;;28.90;;
15096;SDS011;7649;52.084;7.478;2024-02-28T06:44:30;55.87;;;23.93;;
15096;SDS011;7649;52.084;7.478;2024-02-28T06:46:59;57.67;;;29.57;;
15096;SDS011;7649;52.084;7.478;2024-02-28T06:49:27;54.10;;;26.67;;
15096;SDS011;7649;52.084;7.478;2024-02-28T06:51:55;81.67;;;29.73;;
15096;SDS011;7649;52.084;7.478;2024-02-28T06:54:25;57.47;;;28.67;;
15096;SDS011;7649;52.084;7.478;2024-02-28T06:56:54;56.70;;;28.77;;
15096;SDS011;7649;52.084;7.478;2024-02-28T06:59:22;65.30;;;28.23;;
15096;SDS011;7649;52.084;7.478;2024-02-28T07:01:52;50.97;;;27.83;;
15096;SDS011;7649;52.084;7.478;2024-02-28T07:04:20;74.17;;;29.70;;
15096;SDS011;7649;52.084;7.478;2024-02-28T07:06:49;61.20;;;28.87;;
15096;SDS011;7649;52.084;7.478;2024-02-28T07:09:18;74.83;;;29.13;;
15096;SDS011;7649;52.084;7.478;2024-02-28T07:11:46;75.23;;;29.90;;
15096;SDS011;7649;52.084;7.478;2024-02-28T07:14:14;61.60;;;29.13;;
15096;SDS011;7649;52.084;7.478;2024-02-28T07:16:45;65.73;;;29.10;;
15096;SDS011;7649;52.084;7.478;2024-02-28T07:19:14;91.93;;;31.43;;
15096;SDS011;7649;52.084;7.478;2024-02-28T07:21:44;93.43;;;29.97;;
15096;SDS011;7649;52.084;7.478;2024-02-28T07:24:13;85.23;;;30.20;;
15096;SDS011;7649;52.084;7.478;2024-02-28T07:26:41;56.33;;;27.73;;
15096;SDS011;7649;52.084;7.478;2024-02-28T07:29:09;68.83;;;28.17;;
15096;SDS011;7649;52.084;7.478;2024-02-28T07:32:04;59.73;;;28.93;;
15096;SDS011;7649;52.084;7.478;2024-02-28T07:34:33;57.10;;;27.80;;
15096;SDS011;7649;52.084;7.478;2024-02-28T07:37:02;58.63;;;27.30;;
15096;SDS011;7649;52.084;7.478;2024-02-28T07:39:30;58.23;;;27.90;;
15096;SDS011;7649;52.084;7.478;2024-02-28T07:41:59;63.53;;;28.87;;
15096;SDS011;7649;52.084;7.478;2024-02-28T07:44:27;63.70;;;29.73;;
15096;SDS011;7649;52.084;7.478;2024-02-28T07:46:57;58.20;;;28.73;;
15096;SDS011;7649;52.084;7.478;2024-02-28T07:49:25;64.80;;;29.07;;
15096;SDS011;7649;52.084;7.478;2024-02-28T07:51:55;78.73;;;31.90;;
15096;SDS011;7649;52.084;7.478;2024-02-28T07:54:25;82.53;;;31.20;;
15096;SDS011;7649;52.084;7.478;2024-02-28T07:56:53;63.73;;;29.13;;
15096;SDS011;7649;52.084;7.478;2024-02-28T07:59:22;85.17;;;33.47;;
15096;SDS011;7649;52.084;7.478;2024-02-28T08:01:50;88.37;;;33.10;;
15096;SDS011;7649;52.084;7.478;2024-02-28T08:04:19;67.93;;;30.63;;
15096;SDS011;7649;52.084;7.478;2024-02-28T08:06:47;74.50;;;32.00;;
15096;SDS011;7649;52.084;7.478;2024-02-28T08:09:18;84.07;;;32.27;;
15096;SDS011;7649;52.084;7.478;2024-02-28T08:11:46;72.60;;;32.10;;
15096;SDS011;7649;52.084;7.478;2024-02-28T08:14:14;67.97;;;32.13;;
15096;SDS011;7649;52.084;7.478;2024-02-28T08:16:43;65.70;;;32.17;;
15096;SDS011;7649;52.084;7.478;2024-02-28T08:19:12;74.80;;;32.40;;
15096;SDS011;7649;52.084;7.478;2024-02-28T08:21:40;69.20;;;32.07;;
15096;SDS011;7649;52.084;7.478;2024-02-28T08:24:08;66.67;;;32.80;;
15096;SDS011;7649;52.084;7.478;2024-02-28T08:26:38;72.83;;;33.83;;
15096;SDS011;7649;52.084;7.478;2024-02-28T08:29:07;78.57;;;36.87;;
15096;SDS011;7649;52.084;7.478;2024-02-28T08:31:39;66.47;;;33.77;;
15096;SDS011;7649;52.084;7.478;2024-02-28T08:34:08;66.43;;;31.97;;
15096;SDS011;7649;52.084;7.478;2024-02-28T08:36:36;70.73;;;32.87;;
15096;SDS011;7649;52.084;7.478;2024-02-28T08:39:05;68.90;;;31.20;;
15096;SDS011;7649;52.084;7.478;2024-02-28T08:41:35;67.80;;;32.63;;
15096;SDS011;7649;52.084;7.478;2024-02-28T08:44:05;70.23;;;33.93;;
15096;SDS011;7649;52.084;7.478;2024-02-28T08:46:33;65.33;;;32.03;;
15096;SDS011;7649;52.084;7.478;2024-02-28T08:49:02;68.93;;;32.13;;
15096;SDS011;7649;52.084;7.478;2024-02-28T08:51:30;66.77;;;34.20;;
15096;SDS011;7649;52.084;7.478;2024-02-28T08:53:58;60.97;;;32.27;;
15096;SDS011;7649;52.084;7.478;2024-02-28T08:56:27;64.57;;;33.27;;
15096;SDS011;7649;52.084;7.478;2024-02-28T08:58:54;64.23;;;33.83;;
15096;SDS011;7649;52.084;7.478;2024-02-28T09:04:30;72.70;;;32.87;;
15096;SDS011;7649;52.084;7.478;2024-02-28T09:06:59;63.87;;;32.13;;
15096;SDS011;7649;52.084;7.478;2024-02-28T09:09:27;56.50;;;31.30;;
15096;SDS011;7649;52.084;7.478;2024-02-28T09:11:58;65.50;;;32.70;;
15096;SDS011;7649;52.084;7.478;2024-02-28T09:14:29;61.87;;;31.97;;
15096;SDS011;7649;52.084;7.478;2024-02-28T09:16:57;57.63;;;31.53;;
15096;SDS011;7649;52.084;7.478;2024-02-28T09:19:31;59.53;;;32.13;;
15096;SDS011;7649;52.084;7.478;2024-02-28T09:22:00;62.73;;;30.57;;
15096;SDS011;7649;52.084;7.478;2024-02-28T09:24:28;53.37;;;29.63;;
15096;SDS011;7649;52.084;7.478;2024-02-28T09:26:58;56.40;;;30.17;;
15096;SDS011;7649;52.084;7.478;2024-02-28T09:29:26;58.73;;;30.97;;
15096;SDS011;7649;52.084;7.478;2024-02-28T09:31:54;136.20;;;35.23;;
15096;SDS011;7649;52.084;7.478;2024-02-28T09:34:23;56.67;;;29.17;;
15096;SDS011;7649;52.084;7.478;2024-02-28T09:36:52;51.30;;;28.37;;
15096;SDS011;7649;52.084;7.478;2024-02-28T09:39:21;53.90;;;28.77;;
15096;SDS011;7649;52.084;7.478;2024-02-28T09:41:49;50.67;;;27.90;;
15096;SDS011;7649;52.084;7.478;2024-02-28T09:44:18;51.13;;;28.20;;
15096;SDS011;7649;52.084;7.478;2024-02-28T09:46:49;56.87;;;28.13;;
15096;SDS011;7649;52.084;7.478;2024-02-28T09:49:18;45.47;;;26.77;;
15096;SDS011;7649;52.084;7.478;2024-02-28T09:51:48;48.17;;;27.27;;
15096;SDS011;7649;52.084;7.478;2024-02-28T09:54:18;50.00;;;26.97;;
15096;SDS011;7649;52.084;7.478;2024-02-28T09:56:47;47.30;;;27.13;;
15096;SDS011;7649;52.084;7.478;2024-02-28T09:59:16;49.43;;;27.63;;
15096;SDS011;7649;52.084;7.478;2024-02-28T10:01:53;45.63;;;26.43;;
15096;SDS011;7649;52.084;7.478;2024-02-28T10:04:23;41.93;;;24.87;;
15096;SDS011;7649;52.084;7.478;2024-02-28T10:06:55;45.83;;;26.10;;
15096;SDS011;7649;52.084;7.478;2024-02-28T10:09:26;46.03;;;24.20;;
15096;SDS011;7649;52.084;7.478;2024-02-28T10:11:54;41.50;;;25.27;;
15096;SDS011;7649;52.084;7.478;2024-02-28T10:14:22;43.60;;;24.37;;
15096;SDS011;7649;52.084;7.478;2024-02-28T10:16:52;44.77;;;25.87;;
15096;SDS011;7649;52.084;7.478;2024-02-28T10:19:21;48.20;;;27.17;;
15096;SDS011;7649;52.084;7.478;2024-02-28T10:21:49;46.77;;;25.53;;
15096;SDS011;7649;52.084;7.478;2024-02-28T10:24:18;45.43;;;26.83;;
15096;SDS011;7649;52.084;7.478;2024-02-28T10:26:48;48.53;;;27.60;;
15096;SDS011;7649;52.084;7.478;2024-02-28T10:29:22;45.73;;;26.77;;
15096;SDS011;7649;52.084;7.478;2024-02-28T10:31:51;51.03;;;28.80;;
15096;SDS011;7649;52.084;7.478;2024-02-28T10:34:19;44.90;;;26.63;;
15096;SDS011;7649;52.084;7.478;2024-02-28T10:36:48;48.77;;;27.53;;
15096;SDS011;7649;52.084;7.478;2024-02-28T10:39:17;49.60;;;28.97;;
15096;SDS011;7649;52.084;7.478;2024-02-28T10:41:46;48.77;;;27.93;;
15096;SDS011;7649;52.084;7.478;2024-02-28T10:44:16;49.13;;;29.10;;
15096;SDS011;7649;52.084;7.478;2024-02-28T10:46:45;49.13;;;29.73;;
15096;SDS011;7649;52.084;7.478;2024-02-28T10:49:19;53.93;;;28.87;;
15096;SDS011;7649;52.084;7.478;2024-02-28T10:51:48;52.07;;;29.90;;
15096;SDS011;7649;52.084;7.478;2024-02-28T10:54:19;50.80;;;28.93;;
15096;SDS011;7649;52.084;7.478;2024-02-28T10:56:49;50.63;;;29.23;;
15096;SDS011;7649;52.084;7.478;2024-02-28T10:59:18;48.47;;;29.13;;
15096;SDS011;7649;52.084;7.478;2024-02-28T11:01:49;55.93;;;31.27;;
15096;SDS011;7649;52.084;7.478;2024-02-28T11:04:18;54.40;;;29.67;;
15096;SDS011;7649;52.084;7.478;2024-02-28T11:06:47;51.10;;;31.03;;
15096;SDS011;7649;52.084;7.478;2024-02-28T11:09:20;54.30;;;31.37;;
15096;SDS011;7649;52.084;7.478;2024-02-28T11:11:53;58.97;;;31.37;;
15096;SDS011;7649;52.084;7.478;2024-02-28T11:14:23;58.60;;;31.30;;
15096;SDS011;7649;52.084;7.478;2024-02-28T11:17:00;53.10;;;30.93;;
15096;SDS011;7649;52.084;7.478;2024-02-28T11:19:29;56.80;;;32.90;;
15096;SDS011;7649;52.084;7.478;2024-02-28T11:21:59;54.30;;;33.47;;
15096;SDS011;7649;52.084;7.478;2024-02-28T11:24:29;64.23;;;35.10;;
15096;SDS011;7649;52.084;7.478;2024-02-28T11:26:58;65.57;;;34.00;;
15096;SDS011;7649;52.084;7.478;2024-02-28T11:29:30;58.97;;;33.47;;
15096;SDS011;7649;52.084;7.478;2024-02-28T11:31:58;60.83;;;33.17;;
15096;SDS011;7649;52.084;7.478;2024-02-28T11:34:27;56.70;;;33.07;;
15096;SDS011;7649;52.084;7.478;2024-02-28T11:36:56;61.83;;;35.30;;
15096;SDS011;7649;52.084;7.478;2024-02-28T11:39:26;68.63;;;38.60;;
15096;SDS011;7649;52.084;7.478;2024-02-28T11:42:02;54.47;;;32.47;;
15096;SDS011;7649;52.084;7.478;2024-02-28T11:44:37;59.63;;;33.33;;
15096;SDS011;7649;52.084;7.478;2024-02-28T11:47:08;60.33;;;33.10;;
15096;SDS011;7649;52.084;7.478;2024-02-28T11:49:37;59.20;;;32.90;;
15096;SDS011;7649;52.084;7.478;2024-02-28T11:52:05;54.97;;;32.23;;
15096;SDS011;7649;52.084;7.478;2024-02-28T11:54:34;58.40;;;32.10;;
15096;SDS011;7649;52.084;7.478;2024-02-28T11:57:03;53.80;;;32.43;;
15096;SDS011;7649;52.084;7.478;2024-02-28T11:59:32;54.43;;;31.70;;
15096;SDS011;7649;52.084;7.478;2024-02-28T12:02:10;61.23;;;33.57;;
15096;SDS011;7649;52.084;7.478;2024-02-28T12:04:39;56.37;;;31.20;;
15096;SDS011;7649;52.084;7.478;2024-02-28T12:07:08;58.57;;;32.43;;
15096;SDS011;7649;52.084;7.478;2024-02-28T12:09:37;55.63;;;30.77;;
15096;SDS011;7649;52.084;7.478;2024-02-28T12:12:08;50.40;;;30.37;;
15096;SDS011;7649;52.084;7.478;2024-02-28T12:14:37;52.17;;;30.77;;
15096;SDS011;7649;52.084;7.478;2024-02-28T12:17:07;57.37;;;33.87;;
15096;SDS011;7649;52.084;7.478;2024-02-28T12:19:36;52.83;;;31.70;;
15096;SDS011;7649;52.084;7.478;2024-02-28T12:22:04;51.50;;;31.40;;
15096;SDS011;7649;52.084;7.478;2024-02-28T12:24:34;56.97;;;33.63;;
15096;SDS011;7649;52.084;7.478;2024-02-28T12:27:02;54.13;;;33.40;;
15096;SDS011;7649;52.084;7.478;2024-02-28T12:29:31;52.77;;;33.37;;
15096;SDS011;7649;52.084;7.478;2024-02-28T12:31:59;51.97;;;32.90;;
15096;SDS011;7649;52.084;7.478;2024-02-28T12:34:30;55.43;;;33.67;;
15096;SDS011;7649;52.084;7.478;2024-02-28T12:36:58;52.23;;;33.37;;
15096;SDS011;7649;52.084;7.478;2024-02-28T12:39:27;53.47;;;33.47;;
15096;SDS011;7649;52.084;7.478;2024-02-28T12:41:55;52.93;;;34.43;;
15096;SDS011;7649;52.084;7.478;2024-02-28T12:44:24;54.83;;;34.77;;
15096;SDS011;7649;52.084;7.478;2024-02-28T12:46:53;57.00;;;35.03;;
15096;SDS011;7649;52.084;7.478;2024-02-28T12:49:21;50.57;;;31.90;;
15096;SDS011;7649;52.084;7.478;2024-02-28T12:51:51;50.43;;;31.73;;
15096;SDS011;7649;52.084;7.478;2024-02-28T12:54:20;50.40;;;31.93;;
15096;SDS011;7649;52.084;7.478;2024-02-28T12:56:48;48.13;;;29.67;;
15096;SDS011;7649;52.084;7.478;2024-02-28T12:59:16;40.27;;;27.37;;
15096;SDS011;7649;52.084;7.478;2024-02-28T13:01:45;42.63;;;28.77;;
15096;SDS011;7649;52.084;7.478;2024-02-28T13:04:14;40.43;;;28.03;;
15096;SDS011;7649;52.084;7.478;2024-02-28T13:06:43;44.43;;;27.87;;
15096;SDS011;7649;52.084;7.478;2024-02-28T13:09:13;45.70;;;30.27;;
15096;SDS011;7649;52.084;7.478;2024-02-28T13:11:41;43.00;;;27.30;;
15096;SDS011;7649;52.084;7.478;2024-02-28T13:14:09;44.03;;;28.57;;
15096;SDS011;7649;52.084;7.478;2024-02-28T13:16:38;42.33;;;28.77;;
15096;SDS011;7649;52.084;7.478;2024-02-28T13:19:06;42.93;;;29.33;;
15096;SDS011;7649;52.084;7.478;2024-02-28T13:21:35;45.20;;;29.73;;
15096;SDS011;7649;52.084;7.478;2024-02-28T13:24:03;49.13;;;29.17;;
15096;SDS011;7649;52.084;7.478;2024-02-28T13:26:33;44.43;;;28.53;;
15096;SDS011;7649;52.084;7.478;2024-02-28T13:29:02;49.50;;;29.57;;
15096;SDS011;7649;52.084;7.478;2024-02-28T13:31:30;46.97;;;29.30;;
15096;SDS011;7649;52.084;7.478;2024-02-28T13:33:59;43.03;;;28.37;;
15096;SDS011;7649;52.084;7.478;2024-02-28T13:36:29;38.57;;;26.90;;
15096;SDS011;7649;52.084;7.478;2024-02-28T13:39:02;38.80;;;26.83;;
15096;SDS011;7649;52.084;7.478;2024-02-28T13:41:31;41.63;;;27.17;;
15096;SDS011;7649;52.084;7.478;2024-02-28T13:44:01;41.13;;;27.60;;
15096;SDS011;7649;52.084;7.478;2024-02-28T13:46:29;41.23;;;26.90;;
15096;SDS011;7649;52.084;7.478;2024-02-28T13:48:58;40.07;;;26.13;;
15096;SDS011;7649;52.084;7.478;2024-02-28T13:51:27;40.13;;;26.90;;
15096;SDS011;7649;52.084;7.478;2024-02-28T13:53:55;45.23;;;28.20;;
15096;SDS011;7649;52.084;7.478;2024-02-28T13:56:24;40.30;;;27.83;;
15096;SDS011;7649;52.084;7.478;2024-02-28T13:58:53;41.07;;;26.37;;
15096;SDS011;7649;52.084;7.478;2024-02-28T14:01:24;40.70;;;26.03;;
15096;SDS011;7649;52.084;7.478;2024-02-28T14:03:52;37.73;;;24.10;;
15096;SDS011;7649;52.084;7.478;2024-02-28T14:06:22;43.40;;;27.13;;
15096;SDS011;7649;52.084;7.478;2024-02-28T14:08:50;36.63;;;24.43;;
15096;SDS011;7649;52.084;7.478;2024-02-28T14:11:21;42.57;;;26.83;;
15096;SDS011;7649;52.084;7.478;2024-02-28T14:13:50;37.93;;;25.17;;
15096;SDS011;7649;52.084;7.478;2024-02-28T14:16:18;35.23;;;24.00;;
15096;SDS011;7649;52.084;7.478;2024-02-28T14:18:49;40.10;;;24.47;;
15096;SDS011;7649;52.084;7.478;2024-02-28T14:21:17;38.30;;;25.10;;
15096;SDS011;7649;52.084;7.478;2024-02-28T14:23:47;39.37;;;24.73;;
15096;SDS011;7649;52.084;7.478;2024-02-28T14:26:15;35.97;;;25.00;;
15096;SDS011;7649;52.084;7.478;2024-02-28T14:28:44;40.23;;;25.73;;
15096;SDS011;7649;52.084;7.478;2024-02-28T14:31:12;38.00;;;25.07;;
15096;SDS011;7649;52.084;7.478;2024-02-28T14:33:41;39.97;;;25.00;;
15096;SDS011;7649;52.084;7.478;2024-02-28T14:36:11;37.20;;;24.87;;
15096;SDS011;7649;52.084;7.478;2024-02-28T14:38:40;38.03;;;24.67;;
15096;SDS011;7649;52.084;7.478;2024-02-28T14:41:10;39.53;;;25.33;;
15096;SDS011;7649;52.084;7.478;2024-02-28T14:43:39;37.17;;;24.23;;
15096;SDS011;7649;52.084;7.478;2024-02-28T14:46:07;39.40;;;25.03;;